sensor_id;sensor_type;location;lat;lon;timestamp;pressure;altitude;pressure_sealevel;temperature;humidity
17607;BME280;8922;52.240;20.980;2023-01-30T00:02:15;99968.91;;;1.19;81.80
17607;BME280;8922;52.240;20.980;2023-01-30T00:04:43;99963.84;;;1.19;81.76
17607;BME280;8922;52.240;20.980;2023-01-30T00:07:12;99970.63;;;1.20;82.17
17607;BME280;8922;52.240;20.980;2023-01-30T00:09:41;99940.16;;;1.20;81.70
17607;BME280;8922;52.240;20.980;2023-01-30T00:12:09;99946.94;;;1.21;81.52
17607;BME280;8922;52.240;20.980;2023-01-30T00:14:37;99951.16;;;1.20;81.37
17607;BME280;8922;52.240;20.980;2023-01-30T00:17:08;99942.78;;;1.23;81.23
17607;BME280;8922;52.240;20.980;2023-01-30T00:19:38;99927.56;;;1.23;81.19
17607;BME280;8922;52.240;20.980;2023-01-30T00:22:06;99926.72;;;1.24;81.57
17607;BME280;8922;52.240;20.980;2023-01-30T00:24:35;99913.22;;;1.25;81.30
17607;BME280;8922;52.240;20.980;2023-01-30T00:27:04;99919.16;;;1.26;81.91
17607;BME280;8922;52.240;20.980;2023-01-30T00:29:32;99909.88;;;1.26;81.81
17607;BME280;8922;52.240;20.980;2023-01-30T00:32:04;99909.03;;;1.27;80.89
17607;BME280;8922;52.240;20.980;2023-01-30T00:34:32;99890.38;;;1.25;81.28
17607;BME280;8922;52.240;20.980;2023-01-30T00:37:02;99894.59;;;1.25;81.87
17607;BME280;8922;52.240;20.980;2023-01-30T00:39:34;99881.03;;;1.23;81.45
17607;BME280;8922;52.240;20.980;2023-01-30T00:42:03;99876.78;;;1.22;81.26
17607;BME280;8922;52.240;20.980;2023-01-30T00:44:49;99869.88;;;1.17;81.47
17607;BME280;8922;52.240;20.980;2023-01-30T00:47:35;99863.09;;;1.16;82.23
17607;BME280;8922;52.240;20.980;2023-01-30T00:50:04;99866.50;;;1.17;81.56
17607;BME280;8922;52.240;20.980;2023-01-30T00:52:34;99865.69;;;1.18;82.72
17607;BME280;8922;52.240;20.980;2023-01-30T00:55:04;99857.28;;;1.20;82.31
17607;BME280;8922;52.240;20.980;2023-01-30T00:57:32;99833.56;;;1.18;82.09
17607;BME280;8922;52.240;20.980;2023-01-30T01:00:01;99826.81;;;1.19;82.12
17607;BME280;8922;52.240;20.980;2023-01-30T01:02:31;99831.06;;;1.20;82.25
17607;BME280;8922;52.240;20.980;2023-01-30T01:05:00;99824.28;;;1.20;82.34
17607;BME280;8922;52.240;20.980;2023-01-30T01:07:28;99829.38;;;1.20;82.22
17607;BME280;8922;52.240;20.980;2023-01-30T01:09:58;99801.44;;;1.19;82.27
17607;BME280;8922;52.240;20.980;2023-01-30T01:12:26;99793.81;;;1.19;82.16
17607;BME280;8922;52.240;20.980;2023-01-30T01:14:55;99792.13;;;1.19;82.19
17607;BME280;8922;52.240;20.980;2023-01-30T01:17:23;99797.28;;;1.23;82.36
17607;BME280;8922;52.240;20.980;2023-01-30T01:19:52;99776.97;;;1.23;81.43
17607;BME280;8922;52.240;20.980;2023-01-30T01:22:20;99764.31;;;1.24;82.28
17607;BME280;8922;52.240;20.980;2023-01-30T01:24:48;99756.75;;;1.26;81.95
17607;BME280;8922;52.240;20.980;2023-01-30T01:27:18;99754.22;;;1.27;81.19
17607;BME280;8922;52.240;20.980;2023-01-30T01:29:47;99743.28;;;1.30;81.92
17607;BME280;8922;52.240;20.980;2023-01-30T01:32:15;99739.06;;;1.30;81.56
17607;BME280;8922;52.240;20.980;2023-01-30T01:34:44;99736.59;;;1.33;81.52
17607;BME280;8922;52.240;20.980;2023-01-30T01:37:12;99730.72;;;1.36;81.52
17607;BME280;8922;52.240;20.980;2023-01-30T01:39:40;99736.66;;;1.36;80.54
17607;BME280;8922;52.240;20.980;2023-01-30T01:42:31;99723.09;;;1.36;80.88
17607;BME280;8922;52.240;20.980;2023-01-30T01:45:12;99723.16;;;1.37;81.02
17607;BME280;8922;52.240;20.980;2023-01-30T01:47:45;99710.44;;;1.37;80.39
17607;BME280;8922;52.240;20.980;2023-01-30T01:50:20;99713.00;;;1.37;80.76
17607;BME280;8922;52.240;20.980;2023-01-30T01:52:52;99696.06;;;1.36;79.96
17607;BME280;8922;52.240;20.980;2023-01-30T01:55:23;99683.41;;;1.39;80.88
17607;BME280;8922;52.240;20.980;2023-01-30T01:57:56;99689.31;;;1.38;80.80
17607;BME280;8922;52.240;20.980;2023-01-30T02:00:26;99684.22;;;1.38;80.17
17607;BME280;8922;52.240;20.980;2023-01-30T02:02:58;99680.00;;;1.37;79.82
17607;BME280;8922;52.240;20.980;2023-01-30T02:05:32;99670.66;;;1.36;80.36
17607;BME280;8922;52.240;20.980;2023-01-30T02:08:07;99677.41;;;1.36;79.77
17607;BME280;8922;52.240;20.980;2023-01-30T02:10:44;99664.75;;;1.37;80.64
17607;BME280;8922;52.240;20.980;2023-01-30T02:13:14;99677.47;;;1.39;79.97
17607;BME280;8922;52.240;20.980;2023-01-30T02:15:42;99665.63;;;1.38;79.63
17607;BME280;8922;52.240;20.980;2023-01-30T02:18:12;99664.78;;;1.39;79.43
17607;BME280;8922;52.240;20.980;2023-01-30T02:21:19;99642.75;;;1.36;79.70
17607;BME280;8922;52.240;20.980;2023-01-30T02:27:36;99630.88;;;1.35;79.55
17607;BME280;8922;52.240;20.980;2023-01-30T02:30:56;99636.78;;;1.36;78.89
17607;BME280;8922;52.240;20.980;2023-01-30T02:33:35;99631.69;;;1.34;79.09
17607;BME280;8922;52.240;20.980;2023-01-30T02:36:16;99641.03;;;1.35;79.28
17607;BME280;8922;52.240;20.980;2023-01-30T02:38:52;99630.00;;;1.35;79.33
17607;BME280;8922;52.240;20.980;2023-01-30T02:41:32;99630.06;;;1.38;79.08
17607;BME280;8922;52.240;20.980;2023-01-30T02:44:07;99610.56;;;1.35;79.28
17607;BME280;8922;52.240;20.980;2023-01-30T02:46:49;99624.06;;;1.33;78.73
17607;BME280;8922;52.240;20.980;2023-01-30T02:49:26;99611.38;;;1.33;78.75
17607;BME280;8922;52.240;20.980;2023-01-30T02:51:57;99600.34;;;1.32;77.94
17607;BME280;8922;52.240;20.980;2023-01-30T02:54:27;99590.16;;;1.29;77.85
17607;BME280;8922;52.240;20.980;2023-01-30T02:56:57;99590.09;;;1.26;77.67
17607;BME280;8922;52.240;20.980;2023-01-30T02:59:31;99587.50;;;1.23;77.08
17607;BME280;8922;52.240;20.980;2023-01-30T03:05:52;99569.69;;;1.20;76.96
17607;BME280;8922;52.240;20.980;2023-01-30T03:08:33;99565.44;;;1.19;77.57
17607;BME280;8922;52.240;20.980;2023-01-30T03:11:07;99569.69;;;1.20;76.65
17607;BME280;8922;52.240;20.980;2023-01-30T03:13:46;99563.75;;;1.18;76.55
17607;BME280;8922;52.240;20.980;2023-01-30T03:16:20;99556.94;;;1.17;77.52
17607;BME280;8922;52.240;20.980;2023-01-30T03:18:51;99541.69;;;1.15;77.25
17607;BME280;8922;52.240;20.980;2023-01-30T03:21:19;99540.00;;;1.14;77.09
17607;BME280;8922;52.240;20.980;2023-01-30T03:23:48;99534.84;;;1.11;77.04
17607;BME280;8922;52.240;20.980;2023-01-30T03:26:19;99513.72;;;1.11;77.00
17607;BME280;8922;52.240;20.980;2023-01-30T03:28:50;99513.66;;;1.09;77.04
17607;BME280;8922;52.240;20.980;2023-01-30T03:31:19;99498.50;;;1.11;77.51
17607;BME280;8922;52.240;20.980;2023-01-30T03:33:48;99495.06;;;1.09;77.68
17607;BME280;8922;52.240;20.980;2023-01-30T03:36:18;99486.53;;;1.05;77.59
17607;BME280;8922;52.240;20.980;2023-01-30T03:38:47;99485.69;;;1.05;77.65
17607;BME280;8922;52.240;20.980;2023-01-30T03:41:15;99471.31;;;1.04;78.00
17607;BME280;8922;52.240;20.980;2023-01-30T03:43:43;99479.69;;;1.01;78.58
17607;BME280;8922;52.240;20.980;2023-01-30T03:46:12;99466.97;;;0.98;78.49
17607;BME280;8922;52.240;20.980;2023-01-30T03:48:40;99461.88;;;0.96;79.07
17607;BME280;8922;52.240;20.980;2023-01-30T03:51:08;99462.69;;;0.95;79.40
17607;BME280;8922;52.240;20.980;2023-01-30T03:53:38;99464.38;;;0.95;79.59
17607;BME280;8922;52.240;20.980;2023-01-30T03:56:06;99455.91;;;0.94;80.08
17607;BME280;8922;52.240;20.980;2023-01-30T03:58:35;99446.56;;;0.92;80.06
17607;BME280;8922;52.240;20.980;2023-01-30T04:01:03;99443.16;;;0.91;79.66
17607;BME280;8922;52.240;20.980;2023-01-30T04:03:32;99440.63;;;0.91;80.49
17607;BME280;8922;52.240;20.980;2023-01-30T04:06:01;99428.78;;;0.90;80.21
17607;BME280;8922;52.240;20.980;2023-01-30T04:08:29;99427.09;;;0.89;79.69
17607;BME280;8922;52.240;20.980;2023-01-30T04:10:59;99419.47;;;0.89;79.84
17607;BME280;8922;52.240;20.980;2023-01-30T04:13:28;99416.88;;;0.86;80.15
17607;BME280;8922;52.240;20.980;2023-01-30T04:16:16;99416.88;;;0.86;80.12
17607;BME280;8922;52.240;20.980;2023-01-30T04:18:44;99413.50;;;0.87;79.88
17607;BME280;8922;52.240;20.980;2023-01-30T04:21:13;99396.59;;;0.85;79.48
17607;BME280;8922;52.240;20.980;2023-01-30T04:23:42;99394.00;;;0.83;79.59
17607;BME280;8922;52.240;20.980;2023-01-30T04:26:12;99386.41;;;0.83;79.63
17607;BME280;8922;52.240;20.980;2023-01-30T04:28:41;99375.38;;;0.81;79.28
17607;BME280;8922;52.240;20.980;2023-01-30T04:31:10;99375.28;;;0.77;79.05
17607;BME280;8922;52.240;20.980;2023-01-30T04:33:40;99364.25;;;0.73;79.60
17607;BME280;8922;52.240;20.980;2023-01-30T04:36:09;99365.97;;;0.74;79.58
17607;BME280;8922;52.240;20.980;2023-01-30T04:38:38;99362.59;;;0.75;79.39
17607;BME280;8922;52.240;20.980;2023-01-30T04:41:07;99354.94;;;0.73;79.47
17607;BME280;8922;52.240;20.980;2023-01-30T04:43:36;99332.13;;;0.72;79.01
17607;BME280;8922;52.240;20.980;2023-01-30T04:46:05;99335.50;;;0.71;78.79
17607;BME280;8922;52.240;20.980;2023-01-30T04:48:33;99328.75;;;0.73;78.40
17607;BME280;8922;52.240;20.980;2023-01-30T04:51:02;99327.94;;;0.74;78.14
17607;BME280;8922;52.240;20.980;2023-01-30T04:53:30;99323.69;;;0.73;78.69
17607;BME280;8922;52.240;20.980;2023-01-30T04:55:59;99324.53;;;0.73;77.72
17607;BME280;8922;52.240;20.980;2023-01-30T04:58:27;99321.13;;;0.73;77.95
17607;BME280;8922;52.240;20.980;2023-01-30T05:01:12;99321.97;;;0.72;78.00
17607;BME280;8922;52.240;20.980;2023-01-30T05:03:42;99330.50;;;0.77;78.09
17607;BME280;8922;52.240;20.980;2023-01-30T05:06:10;99325.44;;;0.77;78.19
17607;BME280;8922;52.240;20.980;2023-01-30T05:08:38;99310.22;;;0.77;77.23
17607;BME280;8922;52.240;20.980;2023-01-30T05:11:07;99300.06;;;0.77;77.44
17607;BME280;8922;52.240;20.980;2023-01-30T05:13:35;99294.22;;;0.80;77.05
17607;BME280;8922;52.240;20.980;2023-01-30T05:16:05;99287.50;;;0.83;77.49
17607;BME280;8922;52.240;20.980;2023-01-30T05:18:34;99282.44;;;0.83;77.12
17607;BME280;8922;52.240;20.980;2023-01-30T05:21:05;99274.88;;;0.86;76.36
17607;BME280;8922;52.240;20.980;2023-01-30T05:23:34;99249.50;;;0.86;76.70
17607;BME280;8922;52.240;20.980;2023-01-30T05:26:03;99262.19;;;0.88;76.35
17607;BME280;8922;52.240;20.980;2023-01-30T05:28:31;99246.13;;;0.86;76.43
17607;BME280;8922;52.240;20.980;2023-01-30T05:31:00;99245.25;;;0.84;76.08
17607;BME280;8922;52.240;20.980;2023-01-30T05:33:31;99252.84;;;0.84;76.05
17607;BME280;8922;52.240;20.980;2023-01-30T05:35:59;99247.75;;;0.82;76.38
17607;BME280;8922;52.240;20.980;2023-01-30T05:38:28;99243.53;;;0.81;76.58
17607;BME280;8922;52.240;20.980;2023-01-30T05:41:00;99236.78;;;0.82;76.81
17607;BME280;8922;52.240;20.980;2023-01-30T05:43:29;99238.47;;;0.83;76.70
17607;BME280;8922;52.240;20.980;2023-01-30T05:46:00;99228.31;;;0.81;76.45
17607;BME280;8922;52.240;20.980;2023-01-30T05:48:31;99225.84;;;0.86;76.95
17607;BME280;8922;52.240;20.980;2023-01-30T05:51:00;99222.47;;;0.85;75.92
17607;BME280;8922;52.240;20.980;2023-01-30T05:53:31;99217.34;;;0.84;76.05
17607;BME280;8922;52.240;20.980;2023-01-30T05:56:03;99215.63;;;0.81;76.10
17607;BME280;8922;52.240;20.980;2023-01-30T05:58:32;99208.03;;;0.83;76.23
17607;BME280;8922;52.240;20.980;2023-01-30T06:01:01;99213.97;;;0.83;76.11
17607;BME280;8922;52.240;20.980;2023-01-30T06:03:31;99201.25;;;0.80;75.80
17607;BME280;8922;52.240;20.980;2023-01-30T06:06:01;99196.13;;;0.77;76.18
17607;BME280;8922;52.240;20.980;2023-01-30T06:08:30;99196.13;;;0.77;75.94
17607;BME280;8922;52.240;20.980;2023-01-30T06:11:00;99190.19;;;0.77;75.79
17607;BME280;8922;52.240;20.980;2023-01-30T06:13:29;99163.16;;;0.77;76.13
17607;BME280;8922;52.240;20.980;2023-01-30T06:16:00;99170.75;;;0.77;75.84
17607;BME280;8922;52.240;20.980;2023-01-30T06:18:28;99164.03;;;0.78;75.95
17607;BME280;8922;52.240;20.980;2023-01-30T06:20:58;99158.06;;;0.74;76.12
17607;BME280;8922;52.240;20.980;2023-01-30T06:23:26;99164.78;;;0.72;75.38
17607;BME280;8922;52.240;20.980;2023-01-30T06:25:55;99165.63;;;0.72;75.65
17607;BME280;8922;52.240;20.980;2023-01-30T06:28:25;99170.69;;;0.71;75.84
17607;BME280;8922;52.240;20.980;2023-01-30T06:30:54;99171.56;;;0.73;75.96
17607;BME280;8922;52.240;20.980;2023-01-30T06:33:22;99168.16;;;0.71;76.01
17607;BME280;8922;52.240;20.980;2023-01-30T06:35:52;99157.97;;;0.69;75.55
17607;BME280;8922;52.240;20.980;2023-01-30T06:38:22;99151.22;;;0.70;75.07
17607;BME280;8922;52.240;20.980;2023-01-30T06:40:52;99154.63;;;0.70;74.97
17607;BME280;8922;52.240;20.980;2023-01-30T06:43:20;99152.91;;;0.69;75.01
17607;BME280;8922;52.240;20.980;2023-01-30T06:45:49;99147.84;;;0.68;74.68
17607;BME280;8922;52.240;20.980;2023-01-30T06:48:17;99138.53;;;0.68;74.88
17607;BME280;8922;52.240;20.980;2023-01-30T06:50:46;99127.56;;;0.68;74.73
17607;BME280;8922;52.240;20.980;2023-01-30T06:53:15;99125.88;;;0.67;74.70
17607;BME280;8922;52.240;20.980;2023-01-30T06:55:45;99134.31;;;0.69;74.31
17607;BME280;8922;52.240;20.980;2023-01-30T06:58:14;99130.94;;;0.70;74.05
17607;BME280;8922;52.240;20.980;2023-01-30T07:00:42;99132.66;;;0.71;73.80
17607;BME280;8922;52.240;20.980;2023-01-30T07:03:12;99120.84;;;0.73;73.52
17607;BME280;8922;52.240;20.980;2023-01-30T07:05:42;99122.56;;;0.74;73.74
17607;BME280;8922;52.240;20.980;2023-01-30T07:08:12;99124.31;;;0.78;72.94
17607;BME280;8922;52.240;20.980;2023-01-30T07:10:44;99111.59;;;0.77;72.68
17607;BME280;8922;52.240;20.980;2023-01-30T07:13:13;99124.28;;;0.77;72.83
17607;BME280;8922;52.240;20.980;2023-01-30T07:15:41;99105.69;;;0.76;72.30
17607;BME280;8922;52.240;20.980;2023-01-30T07:18:10;99100.63;;;0.76;72.81
17607;BME280;8922;52.240;20.980;2023-01-30T07:20:38;99083.69;;;0.75;72.57
17607;BME280;8922;52.240;20.980;2023-01-30T07:23:08;99092.16;;;0.77;72.21
17607;BME280;8922;52.240;20.980;2023-01-30T07:25:36;99091.34;;;0.78;72.86
17607;BME280;8922;52.240;20.980;2023-01-30T07:28:06;99099.75;;;0.74;72.51
17607;BME280;8922;52.240;20.980;2023-01-30T07:30:37;99078.59;;;0.72;72.82
17607;BME280;8922;52.240;20.980;2023-01-30T07:33:06;99076.06;;;0.70;73.08
17607;BME280;8922;52.240;20.980;2023-01-30T07:35:35;99087.88;;;0.71;73.28
17607;BME280;8922;52.240;20.980;2023-01-30T07:38:05;99081.13;;;0.72;73.33
17607;BME280;8922;52.240;20.980;2023-01-30T07:40:33;99077.69;;;0.67;73.83
17607;BME280;8922;52.240;20.980;2023-01-30T07:43:04;99075.13;;;0.64;74.39
17607;BME280;8922;52.240;20.980;2023-01-30T07:45:38;99063.25;;;0.60;74.23
17607;BME280;8922;52.240;20.980;2023-01-30T07:48:07;99063.16;;;0.55;74.09
17607;BME280;8922;52.240;20.980;2023-01-30T07:50:37;99044.56;;;0.52;74.64
17607;BME280;8922;52.240;20.980;2023-01-30T07:53:07;99058.03;;;0.51;75.49
17607;BME280;8922;52.240;20.980;2023-01-30T07:55:36;99057.19;;;0.50;75.45
17607;BME280;8922;52.240;20.980;2023-01-30T07:58:05;99053.81;;;0.50;75.41
17607;BME280;8922;52.240;20.980;2023-01-30T08:00:35;99046.16;;;0.46;75.91
17607;BME280;8922;52.240;20.980;2023-01-30T08:03:03;99044.44;;;0.42;76.32
17607;BME280;8922;52.240;20.980;2023-01-30T08:05:32;99044.38;;;0.39;76.69
17607;BME280;8922;52.240;20.980;2023-01-30T08:08:01;99033.41;;;0.39;76.78
17607;BME280;8922;52.240;20.980;2023-01-30T08:10:29;99040.09;;;0.35;77.40
17607;BME280;8922;52.240;20.980;2023-01-30T08:12:58;99035.84;;;0.31;77.61
17607;BME280;8922;52.240;20.980;2023-01-30T08:15:26;99028.22;;;0.30;78.21
17607;BME280;8922;52.240;20.980;2023-01-30T08:17:59;99019.78;;;0.31;78.19
17607;BME280;8922;52.240;20.980;2023-01-30T08:20:28;99025.69;;;0.31;78.82
17607;BME280;8922;52.240;20.980;2023-01-30T08:22:58;99011.34;;;0.32;78.39
17607;BME280;8922;52.240;20.980;2023-01-30T08:25:28;99014.72;;;0.31;78.38
17607;BME280;8922;52.240;20.980;2023-01-30T08:27:57;99007.13;;;0.31;78.78
17607;BME280;8922;52.240;20.980;2023-01-30T08:30:27;99007.97;;;0.30;79.16
17607;BME280;8922;52.240;20.980;2023-01-30T08:32:58;99007.97;;;0.33;78.77
17607;BME280;8922;52.240;20.980;2023-01-30T08:35:27;99010.50;;;0.31;78.82
17607;BME280;8922;52.240;20.980;2023-01-30T08:37:55;99009.63;;;0.28;78.97
17607;BME280;8922;52.240;20.980;2023-01-30T08:40:23;99002.84;;;0.27;79.41
17607;BME280;8922;52.240;20.980;2023-01-30T08:42:52;99002.00;;;0.29;79.45
17607;BME280;8922;52.240;20.980;2023-01-30T08:45:20;99007.09;;;0.29;79.66
17607;BME280;8922;52.240;20.980;2023-01-30T08:47:49;98993.56;;;0.29;79.47
17607;BME280;8922;52.240;20.980;2023-01-30T08:50:19;99002.84;;;0.28;79.28
17607;BME280;8922;52.240;20.980;2023-01-30T08:52:47;98996.94;;;0.26;79.18
17607;BME280;8922;52.240;20.980;2023-01-30T08:55:16;98984.19;;;0.21;79.24
17607;BME280;8922;52.240;20.980;2023-01-30T08:57:45;98984.19;;;0.20;79.49
17607;BME280;8922;52.240;20.980;2023-01-30T09:00:16;98974.88;;;0.19;79.45
17607;BME280;8922;52.240;20.980;2023-01-30T09:02:45;98963.88;;;0.18;79.82
17607;BME280;8922;52.240;20.980;2023-01-30T09:05:14;98971.53;;;0.21;79.33
17607;BME280;8922;52.240;20.980;2023-01-30T09:07:44;98972.38;;;0.22;79.83
17607;BME280;8922;52.240;20.980;2023-01-30T09:10:15;98965.66;;;0.22;79.81
17607;BME280;8922;52.240;20.980;2023-01-30T09:12:47;98961.44;;;0.24;79.86
17607;BME280;8922;52.240;20.980;2023-01-30T09:15:15;98944.56;;;0.25;79.38
17607;BME280;8922;52.240;20.980;2023-01-30T09:17:44;98942.91;;;0.27;79.76
17607;BME280;8922;52.240;20.980;2023-01-30T09:20:12;98939.44;;;0.22;80.31
17607;BME280;8922;52.240;20.980;2023-01-30T09:22:42;98933.53;;;0.21;80.04
17607;BME280;8922;52.240;20.980;2023-01-30T09:25:10;98928.41;;;0.17;80.28
17607;BME280;8922;52.240;20.980;2023-01-30T09:27:39;98928.41;;;0.17;80.54
17607;BME280;8922;52.240;20.980;2023-01-30T09:30:11;98921.69;;;0.19;80.61
17607;BME280;8922;52.240;20.980;2023-01-30T09:32:40;98917.50;;;0.21;80.25
17607;BME280;8922;52.240;20.980;2023-01-30T09:35:08;98935.25;;;0.24;80.71
17607;BME280;8922;52.240;20.980;2023-01-30T09:37:37;98923.44;;;0.23;80.27
17607;BME280;8922;52.240;20.980;2023-01-30T09:40:13;98909.88;;;0.19;80.11
17607;BME280;8922;52.240;20.980;2023-01-30T09:43:18;98910.72;;;0.20;80.66
17607;BME280;8922;52.240;20.980;2023-01-30T09:46:10;98906.50;;;0.20;80.53
17607;BME280;8922;52.240;20.980;2023-01-30T09:48:55;98903.19;;;0.24;80.20
17607;BME280;8922;52.240;20.980;2023-01-30T09:51:43;98886.31;;;0.27;80.26
17607;BME280;8922;52.240;20.980;2023-01-30T09:54:18;98878.72;;;0.28;80.33
17607;BME280;8922;52.240;20.980;2023-01-30T09:57:10;98877.88;;;0.26;80.42
17607;BME280;8922;52.240;20.980;2023-01-30T10:00:03;98884.63;;;0.29;80.95
17607;BME280;8922;52.240;20.980;2023-01-30T10:02:43;98875.34;;;0.29;80.66
17607;BME280;8922;52.240;20.980;2023-01-30T10:05:15;98868.66;;;0.34;80.95
17607;BME280;8922;52.240;20.980;2023-01-30T10:08:00;98868.66;;;0.34;80.74
17607;BME280;8922;52.240;20.980;2023-01-30T10:10:45;98869.56;;;0.39;80.98
17607;BME280;8922;52.240;20.980;2023-01-30T10:13:54;98856.91;;;0.42;81.20
17607;BME280;8922;52.240;20.980;2023-01-30T10:16:32;98857.81;;;0.47;81.01
17607;BME280;8922;52.240;20.980;2023-01-30T10:19:36;98853.59;;;0.50;80.86
17607;BME280;8922;52.240;20.980;2023-01-30T10:22:29;98840.97;;;0.53;81.06
17607;BME280;8922;52.240;20.980;2023-01-30T10:25:12;98831.69;;;0.55;80.81
17607;BME280;8922;52.240;20.980;2023-01-30T10:27:52;98829.16;;;0.53;81.15
17607;BME280;8922;52.240;20.980;2023-01-30T10:30:24;98826.63;;;0.52;80.73
17607;BME280;8922;52.240;20.980;2023-01-30T10:32:58;98813.03;;;0.46;81.21
17607;BME280;8922;52.240;20.980;2023-01-30T10:35:33;98810.50;;;0.45;81.66
17607;BME280;8922;52.240;20.980;2023-01-30T10:38:11;98807.13;;;0.44;81.75
17607;BME280;8922;52.240;20.980;2023-01-30T10:40:47;98817.25;;;0.47;82.13
17607;BME280;8922;52.240;20.980;2023-01-30T10:43:25;98809.72;;;0.52;82.12
17607;BME280;8922;52.240;20.980;2023-01-30T10:46:03;98802.16;;;0.57;81.82
17607;BME280;8922;52.240;20.980;2023-01-30T10:48:52;98803.03;;;0.62;82.30
17607;BME280;8922;52.240;20.980;2023-01-30T10:51:33;98791.22;;;0.65;81.85
17607;BME280;8922;52.240;20.980;2023-01-30T10:54:11;98780.25;;;0.65;82.27
17607;BME280;8922;52.240;20.980;2023-01-30T10:56:46;98798.00;;;0.66;82.23
17607;BME280;8922;52.240;20.980;2023-01-30T10:59:23;98796.28;;;0.64;81.95
17607;BME280;8922;52.240;20.980;2023-01-30T11:02:15;98788.69;;;0.65;82.55
17607;BME280;8922;52.240;20.980;2023-01-30T11:04:56;98794.59;;;0.66;81.98
17607;BME280;8922;52.240;20.980;2023-01-30T11:07:26;98788.69;;;0.65;82.64
17607;BME280;8922;52.240;20.980;2023-01-30T11:09:58;98779.41;;;0.63;82.18
17607;BME280;8922;52.240;20.980;2023-01-30T11:12:27;98781.94;;;0.63;82.13
17607;BME280;8922;52.240;20.980;2023-01-30T11:14:57;98777.72;;;0.63;82.58
17607;BME280;8922;52.240;20.980;2023-01-30T11:17:33;98769.25;;;0.63;82.44
17607;BME280;8922;52.240;20.980;2023-01-30T11:20:11;98755.75;;;0.65;82.74
17607;BME280;8922;52.240;20.980;2023-01-30T11:22:46;98763.38;;;0.68;82.49
17607;BME280;8922;52.240;20.980;2023-01-30T11:25:19;98751.53;;;0.67;83.15
17607;BME280;8922;52.240;20.980;2023-01-30T11:27:53;98757.50;;;0.74;82.64
17607;BME280;8922;52.240;20.980;2023-01-30T11:30:27;98755.00;;;0.79;82.87
17607;BME280;8922;52.240;20.980;2023-01-30T11:33:12;98753.34;;;0.82;82.95
17607;BME280;8922;52.240;20.980;2023-01-30T11:35:50;98744.91;;;0.88;83.22
17607;BME280;8922;52.240;20.980;2023-01-30T11:38:22;98736.50;;;0.95;83.06
17607;BME280;8922;52.240;20.980;2023-01-30T11:41:06;98731.47;;;1.00;82.67
17607;BME280;8922;52.240;20.980;2023-01-30T11:43:40;98729.78;;;1.06;82.51
17607;BME280;8922;52.240;20.980;2023-01-30T11:46:11;98722.22;;;1.08;82.46
17607;BME280;8922;52.240;20.980;2023-01-30T11:48:47;98722.22;;;1.08;82.74
17607;BME280;8922;52.240;20.980;2023-01-30T11:51:42;98723.91;;;1.07;82.52
17607;BME280;8922;52.240;20.980;2023-01-30T11:54:15;98720.50;;;1.07;82.31
17607;BME280;8922;52.240;20.980;2023-01-30T11:56:51;98716.25;;;1.06;82.81
17607;BME280;8922;52.240;20.980;2023-01-30T11:59:24;98717.09;;;1.06;83.02
17607;BME280;8922;52.240;20.980;2023-01-30T12:02:03;98726.44;;;1.07;83.19
17607;BME280;8922;52.240;20.980;2023-01-30T12:04:34;98714.56;;;1.06;82.72
17607;BME280;8922;52.240;20.980;2023-01-30T12:07:15;98724.75;;;1.08;83.14
17607;BME280;8922;52.240;20.980;2023-01-30T12:09:44;98712.88;;;1.07;82.60
17607;BME280;8922;52.240;20.980;2023-01-30T12:12:30;98709.53;;;1.08;82.85
17607;BME280;8922;52.240;20.980;2023-01-30T12:15:16;98710.34;;;1.07;82.89
17607;BME280;8922;52.240;20.980;2023-01-30T12:17:56;98718.81;;;1.06;82.60
17607;BME280;8922;52.240;20.980;2023-01-30T12:20:44;98695.13;;;1.07;82.75
17607;BME280;8922;52.240;20.980;2023-01-30T12:23:22;98697.69;;;1.08;83.16
17607;BME280;8922;52.240;20.980;2023-01-30T12:26:00;98702.75;;;1.08;82.92
17607;BME280;8922;52.240;20.980;2023-01-30T12:28:38;98701.06;;;1.07;82.82
17607;BME280;8922;52.240;20.980;2023-01-30T12:31:15;98702.75;;;1.10;83.04
17607;BME280;8922;52.240;20.980;2023-01-30T12:33:47;98705.28;;;1.10;83.45
17607;BME280;8922;52.240;20.980;2023-01-30T12:36:27;98705.31;;;1.13;82.98
17607;BME280;8922;52.240;20.980;2023-01-30T12:39:19;98703.66;;;1.15;83.10
17607;BME280;8922;52.240;20.980;2023-01-30T12:42:16;98700.25;;;1.16;82.70
17607;BME280;8922;52.240;20.980;2023-01-30T12:45:04;98692.66;;;1.19;83.49
17607;BME280;8922;52.240;20.980;2023-01-30T12:48:00;98695.19;;;1.20;82.37
17607;BME280;8922;52.240;20.980;2023-01-30T12:50:48;98696.06;;;1.23;82.64
17607;BME280;8922;52.240;20.980;2023-01-30T12:53:33;98685.91;;;1.24;82.51
17607;BME280;8922;52.240;20.980;2023-01-30T12:56:48;98696.06;;;1.26;82.62
17607;BME280;8922;52.240;20.980;2023-01-30T12:59:25;98699.47;;;1.26;82.33
17607;BME280;8922;52.240;20.980;2023-01-30T13:02:19;98695.22;;;1.27;82.04
17607;BME280;8922;52.240;20.980;2023-01-30T13:05:03;98693.53;;;1.29;82.51
17607;BME280;8922;52.240;20.980;2023-01-30T13:07:41;98688.47;;;1.30;82.89
17607;BME280;8922;52.240;20.980;2023-01-30T13:10:20;98685.09;;;1.31;82.38
17607;BME280;8922;52.240;20.980;2023-01-30T13:13:06;98682.56;;;1.31;83.17
17607;BME280;8922;52.240;20.980;2023-01-30T13:15:43;98680.88;;;1.35;83.07
17607;BME280;8922;52.240;20.980;2023-01-30T13:18:16;98679.19;;;1.35;83.10
17607;BME280;8922;52.240;20.980;2023-01-30T13:20:55;98680.91;;;1.36;82.82
17607;BME280;8922;52.240;20.980;2023-01-30T13:23:40;98678.34;;;1.39;82.81
17607;BME280;8922;52.240;20.980;2023-01-30T13:26:20;98668.19;;;1.39;83.03
17607;BME280;8922;52.240;20.980;2023-01-30T13:28:55;98684.25;;;1.40;82.98
17607;BME280;8922;52.240;20.980;2023-01-30T13:31:28;98673.28;;;1.42;83.15
17607;BME280;8922;52.240;20.980;2023-01-30T13:34:04;98680.91;;;1.41;83.21
17607;BME280;8922;52.240;20.980;2023-01-30T13:36:41;98680.91;;;1.42;83.34
17607;BME280;8922;52.240;20.980;2023-01-30T13:39:15;98678.38;;;1.44;83.25
17607;BME280;8922;52.240;20.980;2023-01-30T13:41:52;98685.13;;;1.47;83.12
17607;BME280;8922;52.240;20.980;2023-01-30T13:44:27;98675.00;;;1.45;83.69
17607;BME280;8922;52.240;20.980;2023-01-30T13:47:04;98665.69;;;1.49;83.25
17607;BME280;8922;52.240;20.980;2023-01-30T13:49:43;98680.94;;;1.49;83.02
17607;BME280;8922;52.240;20.980;2023-01-30T13:52:22;98668.22;;;1.49;84.13